sensor_id;sensor_type;location;lat;lon;timestamp;P1;P2;P0
77411;PMS7003;66484;49.968;19.140;2023-05-21T00:01:56;51.67;42.33;28.00
77411;PMS7003;66484;49.968;19.140;2023-05-21T00:04:26;50.33;42.33;28.33
77411;PMS7003;66484;49.968;19.140;2023-05-21T00:06:55;47.67;39.00;26.00
77411;PMS7003;66484;49.968;19.140;2023-05-21T00:09:25;50.67;39.33;25.67
77411;PMS7003;66484;49.968;19.140;2023-05-21T00:11:53;49.67;42.00;28.00
77411;PMS7003;66484;49.968;19.140;2023-05-21T00:14:20;50.33;42.33;28.00
77411;PMS7003;66484;49.968;19.140;2023-05-21T00:16:47;40.33;34.67;21.00
77411;PMS7003;66484;49.968;19.140;2023-05-21T00:19:15;42.00;38.00;25.67
77411;PMS7003;66484;49.968;19.140;2023-05-21T00:21:42;41.33;36.67;23.00
77411;PMS7003;66484;49.968;19.140;2023-05-21T00:24:11;46.67;39.67;26.33
77411;PMS7003;66484;49.968;19.140;2023-05-21T00:26:38;44.33;34.33;23.33
77411;PMS7003;66484;49.968;19.140;2023-05-21T00:29:06;48.00;41.00;25.00
77411;PMS7003;66484;49.968;19.140;2023-05-21T00:31:33;35.67;33.33;22.33
77411;PMS7003;66484;49.968;19.140;2023-05-21T00:34:01;49.00;40.67;25.00
77411;PMS7003;66484;49.968;19.140;2023-05-21T00:36:28;51.67;42.33;27.00
77411;PMS7003;66484;49.968;19.140;2023-05-21T00:38:56;46.33;38.67;26.00
77411;PMS7003;66484;49.968;19.140;2023-05-21T00:41:23;52.67;41.00;24.67
77411;PMS7003;66484;49.968;19.140;2023-05-21T00:43:52;43.67;37.67;24.33
77411;PMS7003;66484;49.968;19.140;2023-05-21T00:46:19;49.67;40.00;25.33
77411;PMS7003;66484;49.968;19.140;2023-05-21T00:48:47;50.33;40.00;26.00
77411;PMS7003;66484;49.968;19.140;2023-05-21T00:51:15;44.33;38.67;24.67
77411;PMS7003;66484;49.968;19.140;2023-05-21T00:53:44;48.33;39.33;28.00
77411;PMS7003;66484;49.968;19.140;2023-05-21T00:56:12;41.67;37.67;25.33
77411;PMS7003;66484;49.968;19.140;2023-05-21T00:58:39;47.00;40.00;27.33
77411;PMS7003;66484;49.968;19.140;2023-05-21T01:01:07;47.33;38.67;26.00
77411;PMS7003;66484;49.968;19.140;2023-05-21T01:03:40;48.00;40.67;26.00
77411;PMS7003;66484;49.968;19.140;2023-05-21T01:06:08;48.00;39.67;24.33
77411;PMS7003;66484;49.968;19.140;2023-05-21T01:08:37;47.67;41.67;25.00
77411;PMS7003;66484;49.968;19.140;2023-05-21T01:11:07;45.67;39.00;26.00
77411;PMS7003;66484;49.968;19.140;2023-05-21T01:13:36;52.33;42.67;28.00
77411;PMS7003;66484;49.968;19.140;2023-05-21T01:16:05;46.67;39.33;26.67
77411;PMS7003;66484;49.968;19.140;2023-05-21T01:18:34;49.33;40.67;26.67
77411;PMS7003;66484;49.968;19.140;2023-05-21T01:21:04;48.00;38.33;24.67
77411;PMS7003;66484;49.968;19.140;2023-05-21T01:23:33;43.67;35.67;22.33
77411;PMS7003;66484;49.968;19.140;2023-05-21T01:26:00;50.67;39.67;26.33
77411;PMS7003;66484;49.968;19.140;2023-05-21T01:28:28;48.67;40.67;26.00
77411;PMS7003;66484;49.968;19.140;2023-05-21T01:31:01;37.67;33.00;21.00
77411;PMS7003;66484;49.968;19.140;2023-05-21T01:33:38;46.67;40.67;26.00
77411;PMS7003;66484;49.968;19.140;2023-05-21T01:36:15;47.33;40.67;27.67
77411;PMS7003;66484;49.968;19.140;2023-05-21T01:38:48;51.67;42.00;26.00
77411;PMS7003;66484;49.968;19.140;2023-05-21T01:41:31;48.33;39.67;28.00
77411;PMS7003;66484;49.968;19.140;2023-05-21T01:44:01;48.00;41.00;25.33
77411;PMS7003;66484;49.968;19.140;2023-05-21T01:46:29;43.67;39.00;25.00
77411;PMS7003;66484;49.968;19.140;2023-05-21T01:48:59;52.33;42.00;28.00
77411;PMS7003;66484;49.968;19.140;2023-05-21T01:51:27;39.67;35.67;26.33
77411;PMS7003;66484;49.968;19.140;2023-05-21T01:53:54;48.67;41.00;28.00
77411;PMS7003;66484;49.968;19.140;2023-05-21T01:56:21;53.67;43.00;28.67
77411;PMS7003;66484;49.968;19.140;2023-05-21T01:58:53;54.00;43.00;27.00
77411;PMS7003;66484;49.968;19.140;2023-05-21T02:01:22;57.00;44.00;30.00
77411;PMS7003;66484;49.968;19.140;2023-05-21T02:03:49;52.67;42.33;28.33
77411;PMS7003;66484;49.968;19.140;2023-05-21T02:06:17;53.33;44.00;26.33
77411;PMS7003;66484;49.968;19.140;2023-05-21T02:08:44;53.67;39.67;26.00
77411;PMS7003;66484;49.968;19.140;2023-05-21T02:11:11;44.67;38.67;26.00
77411;PMS7003;66484;49.968;19.140;2023-05-21T02:13:39;55.67;45.33;29.33
77411;PMS7003;66484;49.968;19.140;2023-05-21T02:16:08;51.00;41.67;27.33
77411;PMS7003;66484;49.968;19.140;2023-05-21T02:18:41;46.33;37.67;21.00
77411;PMS7003;66484;49.968;19.140;2023-05-21T02:21:12;55.33;45.67;29.33
77411;PMS7003;66484;49.968;19.140;2023-05-21T02:23:39;53.33;42.67;27.67
77411;PMS7003;66484;49.968;19.140;2023-05-21T02:26:08;52.33;41.33;26.67
77411;PMS7003;66484;49.968;19.140;2023-05-21T02:28:35;48.33;42.33;28.00
77411;PMS7003;66484;49.968;19.140;2023-05-21T02:31:02;56.00;45.33;29.00
77411;PMS7003;66484;49.968;19.140;2023-05-21T02:33:30;49.33;39.00;28.00
77411;PMS7003;66484;49.968;19.140;2023-05-21T02:35:57;59.67;48.00;30.67
77411;PMS7003;66484;49.968;19.140;2023-05-21T02:38:24;56.67;48.00;29.33
77411;PMS7003;66484;49.968;19.140;2023-05-21T02:40:52;53.67;44.00;30.00
77411;PMS7003;66484;49.968;19.140;2023-05-21T02:43:19;56.67;47.00;30.33
77411;PMS7003;66484;49.968;19.140;2023-05-21T02:45:46;57.33;45.67;29.67
77411;PMS7003;66484;49.968;19.140;2023-05-21T02:48:14;56.00;46.33;30.00
77411;PMS7003;66484;49.968;19.140;2023-05-21T02:50:41;53.67;45.33;29.67
77411;PMS7003;66484;49.968;19.140;2023-05-21T02:53:08;50.00;41.33;25.67
77411;PMS7003;66484;49.968;19.140;2023-05-21T02:55:35;51.33;43.33;29.00
77411;PMS7003;66484;49.968;19.140;2023-05-21T02:58:03;54.00;45.00;29.00
77411;PMS7003;66484;49.968;19.140;2023-05-21T03:00:31;53.00;41.33;27.33
77411;PMS7003;66484;49.968;19.140;2023-05-21T03:02:58;53.67;42.67;29.00
77411;PMS7003;66484;49.968;19.140;2023-05-21T03:05:25;54.00;44.33;29.67
77411;PMS7003;66484;49.968;19.140;2023-05-21T03:07:53;55.33;45.00;29.00
77411;PMS7003;66484;49.968;19.140;2023-05-21T03:10:20;44.33;38.00;26.33
77411;PMS7003;66484;49.968;19.140;2023-05-21T03:12:47;57.00;44.67;29.00
77411;PMS7003;66484;49.968;19.140;2023-05-21T03:15:14;57.00;47.67;29.67
77411;PMS7003;66484;49.968;19.140;2023-05-21T03:17:42;56.67;45.67;30.00
77411;PMS7003;66484;49.968;19.140;2023-05-21T03:20:10;61.00;48.67;30.00
77411;PMS7003;66484;49.968;19.140;2023-05-21T03:22:42;60.67;47.00;29.00
77411;PMS7003;66484;49.968;19.140;2023-05-21T03:25:10;56.00;44.67;30.00
77411;PMS7003;66484;49.968;19.140;2023-05-21T03:27:38;55.67;46.67;28.67
77411;PMS7003;66484;49.968;19.140;2023-05-21T03:30:06;58.67;47.67;30.00
77411;PMS7003;66484;49.968;19.140;2023-05-21T03:32:34;53.67;45.00;30.33
77411;PMS7003;66484;49.968;19.140;2023-05-21T03:35:03;61.33;46.00;29.00
77411;PMS7003;66484;49.968;19.140;2023-05-21T03:37:31;55.33;45.33;27.67
77411;PMS7003;66484;49.968;19.140;2023-05-21T03:39:58;58.33;46.00;28.33
77411;PMS7003;66484;49.968;19.140;2023-05-21T03:42:26;48.67;41.67;26.00
77411;PMS7003;66484;49.968;19.140;2023-05-21T03:44:53;54.00;45.67;28.33
77411;PMS7003;66484;49.968;19.140;2023-05-21T03:47:21;54.67;42.00;28.00
77411;PMS7003;66484;49.968;19.140;2023-05-21T03:49:48;54.33;46.00;30.00
77411;PMS7003;66484;49.968;19.140;2023-05-21T03:52:15;50.67;42.33;29.00
77411;PMS7003;66484;49.968;19.140;2023-05-21T03:54:43;48.67;41.00;27.00
77411;PMS7003;66484;49.968;19.140;2023-05-21T03:57:10;52.00;40.33;28.00
77411;PMS7003;66484;49.968;19.140;2023-05-21T03:59:37;50.33;43.67;28.67
77411;PMS7003;66484;49.968;19.140;2023-05-21T04:02:05;49.00;41.00;28.00
77411;PMS7003;66484;49.968;19.140;2023-05-21T04:04:32;55.67;45.33;28.33
77411;PMS7003;66484;49.968;19.140;2023-05-21T04:06:59;49.67;40.67;24.00
77411;PMS7003;66484;49.968;19.140;2023-05-21T04:09:27;55.00;45.33;29.33
77411;PMS7003;66484;49.968;19.140;2023-05-21T04:11:54;51.00;42.00;28.33
77411;PMS7003;66484;49.968;19.140;2023-05-21T04:14:22;53.33;42.33;27.67
77411;PMS7003;66484;49.968;19.140;2023-05-21T04:16:50;54.00;44.00;26.67
77411;PMS7003;66484;49.968;19.140;2023-05-21T04:19:17;47.67;41.33;27.67
77411;PMS7003;66484;49.968;19.140;2023-05-21T04:21:44;52.00;43.67;28.67
77411;PMS7003;66484;49.968;19.140;2023-05-21T04:24:12;52.67;41.00;27.00
77411;PMS7003;66484;49.968;19.140;2023-05-21T04:26:39;52.33;44.00;28.33
77411;PMS7003;66484;49.968;19.140;2023-05-21T04:29:08;50.67;42.33;26.67
77411;PMS7003;66484;49.968;19.140;2023-05-21T04:31:36;53.33;43.00;25.33
77411;PMS7003;66484;49.968;19.140;2023-05-21T04:34:03;50.33;41.33;24.33
77411;PMS7003;66484;49.968;19.140;2023-05-21T04:36:30;50.00;41.00;25.67
77411;PMS7003;66484;49.968;19.140;2023-05-21T04:39:00;50.00;40.00;26.67
77411;PMS7003;66484;49.968;19.140;2023-05-21T04:41:27;48.33;40.00;25.00
77411;PMS7003;66484;49.968;19.140;2023-05-21T04:43:54;47.67;40.67;28.00
77411;PMS7003;66484;49.968;19.140;2023-05-21T04:46:22;49.67;40.00;25.33
77411;PMS7003;66484;49.968;19.140;2023-05-21T04:48:51;51.67;41.33;27.33
77411;PMS7003;66484;49.968;19.140;2023-05-21T04:51:21;48.00;38.33;25.33
77411;PMS7003;66484;49.968;19.140;2023-05-21T04:53:50;43.67;36.67;24.33
77411;PMS7003;66484;49.968;19.140;2023-05-21T04:56:17;48.67;40.00;25.33
77411;PMS7003;66484;49.968;19.140;2023-05-21T04:58:45;44.67;37.33;25.33
77411;PMS7003;66484;49.968;19.140;2023-05-21T05:01:14;48.67;38.67;26.00
77411;PMS7003;66484;49.968;19.140;2023-05-21T05:03:41;49.00;39.00;26.00
77411;PMS7003;66484;49.968;19.140;2023-05-21T05:06:09;51.33;43.00;27.67
77411;PMS7003;66484;49.968;19.140;2023-05-21T05:08:36;41.67;35.00;23.00
77411;PMS7003;66484;49.968;19.140;2023-05-21T05:11:03;49.67;40.33;25.00
77411;PMS7003;66484;49.968;19.140;2023-05-21T05:13:31;46.67;39.67;24.00
77411;PMS7003;66484;49.968;19.140;2023-05-21T05:15:58;45.33;38.33;24.00
77411;PMS7003;66484;49.968;19.140;2023-05-21T05:18:25;48.33;37.67;25.67
77411;PMS7003;66484;49.968;19.140;2023-05-21T05:20:53;46.00;37.33;25.00
77411;PMS7003;66484;49.968;19.140;2023-05-21T05:23:20;47.67;39.67;25.00
77411;PMS7003;66484;49.968;19.140;2023-05-21T05:25:47;37.33;33.00;24.00
77411;PMS7003;66484;49.968;19.140;2023-05-21T05:28:15;49.00;38.67;25.00
77411;PMS7003;66484;49.968;19.140;2023-05-21T05:30:42;49.33;40.00;27.00
77411;PMS7003;66484;49.968;19.140;2023-05-21T05:33:10;49.67;40.00;26.67
77411;PMS7003;66484;49.968;19.140;2023-05-21T05:35:37;42.33;36.33;25.00
77411;PMS7003;66484;49.968;19.140;2023-05-21T05:38:05;51.33;41.67;25.00
77411;PMS7003;66484;49.968;19.140;2023-05-21T05:40:34;43.33;36.33;24.67
77411;PMS7003;66484;49.968;19.140;2023-05-21T05:43:02;40.33;35.33;24.00
77411;PMS7003;66484;49.968;19.140;2023-05-21T05:45:29;46.00;39.33;26.00
77411;PMS7003;66484;49.968;19.140;2023-05-21T05:47:56;46.33;38.00;25.00
77411;PMS7003;66484;49.968;19.140;2023-05-21T05:50:24;44.67;38.00;25.33
77411;PMS7003;66484;49.968;19.140;2023-05-21T05:52:52;45.67;37.33;24.00
77411;PMS7003;66484;49.968;19.140;2023-05-21T05:55:19;47.00;38.00;24.67
77411;PMS7003;66484;49.968;19.140;2023-05-21T05:57:47;43.33;36.67;22.00
77411;PMS7003;66484;49.968;19.140;2023-05-21T06:00:15;37.67;33.00;23.00
77411;PMS7003;66484;49.968;19.140;2023-05-21T06:02:43;37.33;34.33;24.67
77411;PMS7003;66484;49.968;19.140;2023-05-21T06:05:10;34.00;30.67;22.00
77411;PMS7003;66484;49.968;19.140;2023-05-21T06:07:38;38.33;35.00;23.00
77411;PMS7003;66484;49.968;19.140;2023-05-21T06:10:06;37.67;33.33;23.00
77411;PMS7003;66484;49.968;19.140;2023-05-21T06:12:34;39.67;33.00;23.00
77411;PMS7003;66484;49.968;19.140;2023-05-21T06:15:01;40.67;34.00;23.67
77411;PMS7003;66484;49.968;19.140;2023-05-21T06:17:29;42.67;34.00;23.33
77411;PMS7003;66484;49.968;19.140;2023-05-21T06:19:57;28.00;27.00;20.33
77411;PMS7003;66484;49.968;19.140;2023-05-21T06:22:25;33.67;32.67;21.67
77411;PMS7003;66484;49.968;19.140;2023-05-21T06:24:52;38.00;33.00;23.00
77411;PMS7003;66484;49.968;19.140;2023-05-21T06:27:19;41.00;36.00;24.33
77411;PMS7003;66484;49.968;19.140;2023-05-21T06:29:46;33.00;31.25;23.00
77411;PMS7003;66484;49.968;19.140;2023-05-21T06:32:13;36.33;34.00;24.00
77411;PMS7003;66484;49.968;19.140;2023-05-21T06:34:41;42.00;35.00;24.00
77411;PMS7003;66484;49.968;19.140;2023-05-21T06:37:08;32.50;30.75;21.25
77411;PMS7003;66484;49.968;19.140;2023-05-21T06:39:35;33.75;31.00;20.75
77411;PMS7003;66484;49.968;19.140;2023-05-21T06:42:03;26.00;25.25;15.50
77411;PMS7003;66484;49.968;19.140;2023-05-21T06:44:30;28.50;27.25;18.75
77411;PMS7003;66484;49.968;19.140;2023-05-21T06:46:57;28.00;27.50;21.00
77411;PMS7003;66484;49.968;19.140;2023-05-21T06:49:25;36.50;32.75;20.50
77411;PMS7003;66484;49.968;19.140;2023-05-21T06:51:52;32.50;30.50;21.00
77411;PMS7003;66484;49.968;19.140;2023-05-21T06:54:19;25.50;25.50;17.75
77411;PMS7003;66484;49.968;19.140;2023-05-21T06:56:46;29.00;28.50;19.50
77411;PMS7003;66484;49.968;19.140;2023-05-21T06:59:14;30.75;30.50;21.00
77411;PMS7003;66484;49.968;19.140;2023-05-21T07:01:42;8.50;4.25;0.50
77411;PMS7003;66484;49.968;19.140;2023-05-21T07:04:10;34.00;33.00;22.50
77411;PMS7003;66484;49.968;19.140;2023-05-21T07:06:38;34.00;31.00;21.00
77411;PMS7003;66484;49.968;19.140;2023-05-21T07:09:05;34.50;31.75;21.00
77411;PMS7003;66484;49.968;19.140;2023-05-21T07:11:33;28.00;25.00;20.75
77411;PMS7003;66484;49.968;19.140;2023-05-21T07:14:01;28.00;26.50;20.00
77411;PMS7003;66484;49.968;19.140;2023-05-21T07:16:29;29.25;27.50;19.75
77411;PMS7003;66484;49.968;19.140;2023-05-21T07:18:57;27.50;25.75;19.00
77411;PMS7003;66484;49.968;19.140;2023-05-21T07:21:24;22.50;22.50;17.50
77411;PMS7003;66484;49.968;19.140;2023-05-21T07:23:52;26.75;25.75;18.00
77411;PMS7003;66484;49.968;19.140;2023-05-21T07:26:19;27.50;27.25;17.00
77411;PMS7003;66484;49.968;19.140;2023-05-21T07:28:47;20.75;20.00;14.00
77411;PMS7003;66484;49.968;19.140;2023-05-21T07:31:14;30.50;25.50;17.50
77411;PMS7003;66484;49.968;19.140;2023-05-21T07:33:42;28.75;28.75;20.00
77411;PMS7003;66484;49.968;19.140;2023-05-21T07:36:10;25.00;23.75;16.25
77411;PMS7003;66484;49.968;19.140;2023-05-21T07:38:37;28.00;26.75;19.25
77411;PMS7003;66484;49.968;19.140;2023-05-21T07:41:05;33.50;29.00;19.75
77411;PMS7003;66484;49.968;19.140;2023-05-21T07:43:33;21.00;19.75;16.25
77411;PMS7003;66484;49.968;19.140;2023-05-21T07:46:01;26.00;25.00;17.25
77411;PMS7003;66484;49.968;19.140;2023-05-21T07:48:28;28.50;28.25;19.75
77411;PMS7003;66484;49.968;19.140;2023-05-21T07:50:56;24.75;23.50;17.00
77411;PMS7003;66484;49.968;19.140;2023-05-21T07:53:24;24.50;23.00;17.00
77411;PMS7003;66484;49.968;19.140;2023-05-21T07:55:51;23.00;22.00;14.75
77411;PMS7003;66484;49.968;19.140;2023-05-21T07:58:19;24.00;22.75;14.25
77411;PMS7003;66484;49.968;19.140;2023-05-21T08:00:46;24.75;23.25;16.50
77411;PMS7003;66484;49.968;19.140;2023-05-21T08:03:15;23.00;22.25;19.00
77411;PMS7003;66484;49.968;19.140;2023-05-21T08:05:44;29.25;25.75;18.25
77411;PMS7003;66484;49.968;19.140;2023-05-21T08:08:17;22.25;21.00;16.75
77411;PMS7003;66484;49.968;19.140;2023-05-21T08:10:45;22.75;21.00;14.75
77411;PMS7003;66484;49.968;19.140;2023-05-21T08:13:14;24.25;20.50;15.75
77411;PMS7003;66484;49.968;19.140;2023-05-21T08:15:42;26.50;24.25;18.75
77411;PMS7003;66484;49.968;19.140;2023-05-21T08:18:10;24.00;22.25;15.50
77411;PMS7003;66484;49.968;19.140;2023-05-21T08:20:37;20.75;20.75;14.25
77411;PMS7003;66484;49.968;19.140;2023-05-21T08:23:05;19.00;18.50;12.75
77411;PMS7003;66484;49.968;19.140;2023-05-21T08:25:33;18.50;16.75;11.00
77411;PMS7003;66484;49.968;19.140;2023-05-21T08:28:01;20.75;20.75;17.00
77411;PMS7003;66484;49.968;19.140;2023-05-21T08:30:28;21.00;20.25;18.00
77411;PMS7003;66484;49.968;19.140;2023-05-21T08:32:55;26.50;25.25;17.50
77411;PMS7003;66484;49.968;19.140;2023-05-21T08:35:23;23.00;20.00;15.00
77411;PMS7003;66484;49.968;19.140;2023-05-21T08:37:50;21.25;19.75;14.50
77411;PMS7003;66484;49.968;19.140;2023-05-21T08:40:18;19.75;19.75;15.50
77411;PMS7003;66484;49.968;19.140;2023-05-21T08:42:49;16.00;16.00;13.00
77411;PMS7003;66484;49.968;19.140;2023-05-21T08:45:20;18.50;17.50;14.25
77411;PMS7003;66484;49.968;19.140;2023-05-21T08:47:53;18.25;18.25;14.00
77411;PMS7003;66484;49.968;19.140;2023-05-21T08:50:25;16.75;16.25;13.25
77411;PMS7003;66484;49.968;19.140;2023-05-21T08:52:54;14.75;14.75;12.75
77411;PMS7003;66484;49.968;19.140;2023-05-21T08:55:21;19.00;17.50;14.00
77411;PMS7003;66484;49.968;19.140;2023-05-21T08:57:49;19.25;17.25;14.00
77411;PMS7003;66484;49.968;19.140;2023-05-21T09:00:16;13.75;13.75;10.75
77411;PMS7003;66484;49.968;19.140;2023-05-21T09:02:46;19.50;14.00;10.25
77411;PMS7003;66484;49.968;19.140;2023-05-21T09:05:13;15.00;15.00;10.50
77411;PMS7003;66484;49.968;19.140;2023-05-21T09:07:42;14.00;12.75;9.75
77411;PMS7003;66484;49.968;19.140;2023-05-21T09:10:21;10.75;10.75;8.75
77411;PMS7003;66484;49.968;19.140;2023-05-21T09:12:50;14.25;13.75;10.00
77411;PMS7003;66484;49.968;19.140;2023-05-21T09:15:17;12.75;12.00;10.00
77411;PMS7003;66484;49.968;19.140;2023-05-21T09:17:45;14.00;14.00;10.50
77411;PMS7003;66484;49.968;19.140;2023-05-21T09:20:14;13.75;13.50;11.25
77411;PMS7003;66484;49.968;19.140;2023-05-21T09:22:45;9.50;8.50;6.25
77411;PMS7003;66484;49.968;19.140;2023-05-21T09:25:17;13.00;13.00;11.00
77411;PMS7003;66484;49.968;19.140;2023-05-21T09:27:47;10.25;10.25;7.25
77411;PMS7003;66484;49.968;19.140;2023-05-21T09:30:15;10.75;10.75;8.50
77411;PMS7003;66484;49.968;19.140;2023-05-21T09:32:44;13.75;12.25;9.75
77411;PMS7003;66484;49.968;19.140;2023-05-21T09:35:13;13.00;11.50;7.00
77411;PMS7003;66484;49.968;19.140;2023-05-21T09:37:42;12.00;12.00;9.75
77411;PMS7003;66484;49.968;19.140;2023-05-21T09:42:49;16.00;15.25;11.50
77411;PMS7003;66484;49.968;19.140;2023-05-21T09:45:18;3.75;2.00;1.00
77411;PMS7003;66484;49.968;19.140;2023-05-21T09:47:46;14.50;10.50;7.00
77411;PMS7003;66484;49.968;19.140;2023-05-21T09:50:24;14.75;13.25;10.75
77411;PMS7003;66484;49.968;19.140;2023-05-21T09:52:54;9.75;9.75;9.00
77411;PMS7003;66484;49.968;19.140;2023-05-21T09:55:21;10.75;9.75;7.00
77411;PMS7003;66484;49.968;19.140;2023-05-21T09:57:50;11.00;11.00;10.00
77411;PMS7003;66484;49.968;19.140;2023-05-21T10:00:18;13.25;9.00;7.50
77411;PMS7003;66484;49.968;19.140;2023-05-21T10:02:53;9.50;9.50;8.00
77411;PMS7003;66484;49.968;19.140;2023-05-21T10:05:24;8.50;8.50;6.00
77411;PMS7003;66484;49.968;19.140;2023-05-21T10:07:59;13.50;12.50;10.25
77411;PMS7003;66484;49.968;19.140;2023-05-21T10:10:30;8.75;8.75;7.00
77411;PMS7003;66484;49.968;19.140;2023-05-21T10:15:40;5.75;5.50;5.00
77411;PMS7003;66484;49.968;19.140;2023-05-21T10:18:09;11.00;11.00;8.00
77411;PMS7003;66484;49.968;19.140;2023-05-21T10:20:38;9.00;9.00;7.25
77411;PMS7003;66484;49.968;19.140;2023-05-21T10:23:06;9.75;9.75;8.50
77411;PMS7003;66484;49.968;19.140;2023-05-21T10:25:33;12.50;11.75;9.00
77411;PMS7003;66484;49.968;19.140;2023-05-21T10:28:01;11.00;11.00;8.25
77411;PMS7003;66484;49.968;19.140;2023-05-21T10:30:28;10.25;9.25;8.00
77411;PMS7003;66484;49.968;19.140;2023-05-21T10:32:56;9.00;9.00;7.75
77411;PMS7003;66484;49.968;19.140;2023-05-21T10:35:24;8.25;8.25;5.00
77411;PMS7003;66484;49.968;19.140;2023-05-21T10:37:51;9.25;9.25;8.00
77411;PMS7003;66484;49.968;19.140;2023-05-21T10:40:20;9.75;9.75;7.50
77411;PMS7003;66484;49.968;19.140;2023-05-21T10:51:52;4.00;4.00;3.00
77411;PMS7003;66484;49.968;19.140;2023-05-21T10:54:53;7.00;7.00;6.00
77411;PMS7003;66484;49.968;19.140;2023-05-21T10:58:17;9.00;9.00;5.25
77411;PMS7003;66484;49.968;19.140;2023-05-21T11:00:40;9.25;8.25;5.75
77411;PMS7003;66484;49.968;19.140;2023-05-21T11:03:09;10.75;9.25;6.75
77411;PMS7003;66484;49.968;19.140;2023-05-21T11:05:39;7.75;6.50;5.50
77411;PMS7003;66484;49.968;19.140;2023-05-21T11:08:18;8.75;7.75;6.75
77411;PMS7003;66484;49.968;19.140;2023-05-21T11:10:54;7.00;5.25;3.00
77411;PMS7003;66484;49.968;19.140;2023-05-21T11:13:24;8.00;8.00;5.00
77411;PMS7003;66484;49.968;19.140;2023-05-21T11:21:09;10.25;9.75;5.75
77411;PMS7003;66484;49.968;19.140;2023-05-21T11:26:18;5.00;5.00;4.75
77411;PMS7003;66484;49.968;19.140;2023-05-21T11:31:34;4.75;4.75;4.00
77411;PMS7003;66484;49.968;19.140;2023-05-21T11:36:40;8.50;8.00;7.00
77411;PMS7003;66484;49.968;19.140;2023-05-21T11:39:14;7.00;6.50;4.25
77411;PMS7003;66484;49.968;19.140;2023-05-21T11:41:50;5.00;5.00;4.00
77411;PMS7003;66484;49.968;19.140;2023-05-21T11:44:17;9.50;8.75;7.00
77411;PMS7003;66484;49.968;19.140;2023-05-21T11:46:48;6.50;6.50;5.75
77411;PMS7003;66484;49.968;19.140;2023-05-21T11:49:20;8.50;8.00;7.00
77411;PMS7003;66484;49.968;19.140;2023-05-21T11:51:54;7.00;7.00;5.00
77411;PMS7003;66484;49.968;19.140;2023-05-21T11:54:22;8.50;7.00;6.00
77411;PMS7003;66484;49.968;19.140;2023-05-21T11:56:52;9.00;9.00;7.25
77411;PMS7003;66484;49.968;19.140;2023-05-21T11:59:20;8.00;7.00;6.00
77411;PMS7003;66484;49.968;19.140;2023-05-21T12:01:47;8.00;6.75;5.75
77411;PMS7003;66484;49.968;19.140;2023-05-21T12:04:14;11.00;8.00;6.25
77411;PMS7003;66484;49.968;19.140;2023-05-21T12:06:42;8.75;8.75;6.75
77411;PMS7003;66484;49.968;19.140;2023-05-21T12:09:09;8.00;5.75;5.25
77411;PMS7003;66484;49.968;19.140;2023-05-21T12:11:37;8.00;8.00;6.75
77411;PMS7003;66484;49.968;19.140;2023-05-21T12:14:08;5.75;5.75;5.25
77411;PMS7003;66484;49.968;19.140;2023-05-21T12:16:36;8.75;8.75;7.00
77411;PMS7003;66484;49.968;19.140;2023-05-21T12:19:05;9.00;9.00;6.25
77411;PMS7003;66484;49.968;19.140;2023-05-21T12:21:33;9.50;8.50;6.75
77411;PMS7003;66484;49.968;19.140;2023-05-21T12:24:01;9.50;8.00;7.00
77411;PMS7003;66484;49.968;19.140;2023-05-21T12:26:29;9.00;7.50;7.00
77411;PMS7003;66484;49.968;19.140;2023-05-21T12:28:58;7.75;7.75;4.25
77411;PMS7003;66484;49.968;19.140;2023-05-21T12:31:29;6.50;6.50;5.00
77411;PMS7003;66484;49.968;19.140;2023-05-21T12:33:56;12.25;11.25;9.25
77411;PMS7003;66484;49.968;19.140;2023-05-21T12:36:28;11.75;11.75;9.00
77411;PMS7003;66484;49.968;19.140;2023-05-21T12:38:57;9.50;9.50;7.00
77411;PMS7003;66484;49.968;19.140;2023-05-21T12:41:24;12.50;11.25;8.00
77411;PMS7003;66484;49.968;19.140;2023-05-21T12:43:52;13.25;12.50;9.75
77411;PMS7003;66484;49.968;19.140;2023-05-21T12:46:19;10.75;10.75;8.50
77411;PMS7003;66484;49.968;19.140;2023-05-21T12:48:51;9.00;9.00;6.50
77411;PMS7003;66484;49.968;19.140;2023-05-21T12:51:19;12.75;11.00;9.00
77411;PMS7003;66484;49.968;19.140;2023-05-21T12:53:46;12.00;9.25;7.50
77411;PMS7003;66484;49.968;19.140;2023-05-21T12:56:14;10.50;8.00;6.25
77411;PMS7003;66484;49.968;19.140;2023-05-21T12:58:48;7.50;7.50;6.00
77411;PMS7003;66484;49.968;19.140;2023-05-21T13:01:16;11.75;11.75;9.00
77411;PMS7003;66484;49.968;19.140;2023-05-21T13:03:44;7.75;7.75;5.25
77411;PMS7003;66484;49.968;19.140;2023-05-21T13:06:11;10.50;8.50;6.00
77411;PMS7003;66484;49.968;19.140;2023-05-21T13:08:38;11.25;10.25;7.50
77411;PMS7003;66484;49.968;19.140;2023-05-21T13:11:06;10.00;10.00;8.00
77411;PMS7003;66484;49.968;19.140;2023-05-21T13:13:33;11.50;10.50;8.00
77411;PMS7003;66484;49.968;19.140;2023-05-21T13:16:00;2.00;1.50;0.00
77411;PMS7003;66484;49.968;19.140;2023-05-21T13:18:27;10.25;10.25;8.00
77411;PMS7003;66484;49.968;19.140;2023-05-21T13:20:55;11.25;10.25;7.75
77411;PMS7003;66484;49.968;19.140;2023-05-21T13:23:22;10.00;10.00;7.75
77411;PMS7003;66484;49.968;19.140;2023-05-21T13:25:50;10.25;8.25;6.50
77411;PMS7003;66484;49.968;19.140;2023-05-21T13:28:17;9.50;8.50;7.25
77411;PMS7003;66484;49.968;19.140;2023-05-21T13:30:45;10.00;9.50;8.00
77411;PMS7003;66484;49.968;19.140;2023-05-21T13:33:12;11.00;11.00;8.75
77411;PMS7003;66484;49.968;19.140;2023-05-21T13:35:40;8.50;7.25;5.75
77411;PMS7003;66484;49.968;19.140;2023-05-21T13:38:07;10.00;10.00;7.00
77411;PMS7003;66484;49.968;19.140;2023-05-21T13:40:35;11.50;8.00;7.00
77411;PMS7003;66484;49.968;19.140;2023-05-21T13:43:04;8.75;8.75;6.50
77411;PMS7003;66484;49.968;19.140;2023-05-21T13:45:32;8.25;7.25;5.25
77411;PMS7003;66484;49.968;19.140;2023-05-21T13:48:00;6.25;6.25;5.25
77411;PMS7003;66484;49.968;19.140;2023-05-21T13:50:27;6.50;6.50;4.00
77411;PMS7003;66484;49.968;19.140;2023-05-21T13:52:55;10.50;10.00;7.50
77411;PMS7003;66484;49.968;19.140;2023-05-21T13:55:22;6.75;6.75;6.25
77411;PMS7003;66484;49.968;19.140;2023-05-21T13:57:49;7.00;7.00;6.00
77411;PMS7003;66484;49.968;19.140;2023-05-21T14:00:17;10.00;8.00;7.00
77411;PMS7003;66484;49.968;19.140;2023-05-21T14:02:44;8.00;7.75;6.00
77411;PMS7003;66484;49.968;19.140;2023-05-21T14:05:12;7.25;7.25;6.00
77411;PMS7003;66484;49.968;19.140;2023-05-21T14:07:39;6.00;6.00;6.00
77411;PMS7003;66484;49.968;19.140;2023-05-21T14:10:08;7.75;7.75;6.75
77411;PMS7003;66484;49.968;19.140;2023-05-21T14:12:35;9.75;8.75;7.75
77411;PMS7003;66484;49.968;19.140;2023-05-21T14:15:04;8.00;6.25;5.00
77411;PMS7003;66484;49.968;19.140;2023-05-21T14:17:32;6.75;6.75;5.25
77411;PMS7003;66484;49.968;19.140;2023-05-21T14:19:59;6.00;6.00;5.75